Time;durP1;ratioP1;P1;durP2;ratioP2;P2;SDS_P1;SDS_P2;PMS_P1;PMS_P2;Temp;Humidity;BMP_temperature;BMP_pressure;BME280_temperature;BME280_humidity;BME280_pressure;Samples;Min_cycle;Max_cycle;Signal;HPM_P1;HPM_P2
2022/12/11 00:00:14;;;;;;;;;;;;;;;3.81;88.70;100510.81;7353406;19;19923;-72
2022/12/11 00:02:41;;;;;;;;;;;;;;;3.81;88.19;100514.25;7349954;19;19946;-71
2022/12/11 00:05:08;;;;;;;;;;;;;;;3.80;87.77;100511.78;7349951;19;19918;-70
2022/12/11 00:07:35;;;;;;;;;;;;;;;3.78;87.79;100518.88;7347857;19;20223;-70
2022/12/11 00:10:02;;;;;;;;;;;;;;;3.76;87.83;100518.16;7352055;19;19946;-69
2022/12/11 00:12:30;;;;;;;;;;;;;;;3.73;87.90;100514.03;7351040;19;19926;-71
2022/12/11 00:14:56;;;;;;;;;;;;;;;3.69;87.86;100510.00;7353139;19;19919;-71
2022/12/11 00:17:23;;;;;;;;;;;;;;;3.71;87.87;100512.47;7350483;19;19915;-70
2022/12/11 00:19:50;;;;;;;;;;;;;;;3.72;88.12;100511.53;7351526;19;20280;-70
2022/12/11 00:22:17;;;;;;;;;;;;;;;3.73;88.13;100511.41;7347766;19;20456;-72
2022/12/11 00:24:43;;;;;;;;;;;;;;;3.72;88.24;100504.56;7350748;19;20355;-68
2022/12/11 00:27:10;;;;;;;;;;;;;;;3.74;88.13;100500.06;7350108;19;20339;-70
2022/12/11 00:29:37;;;;;;;;;;;;;;;3.75;88.25;100503.50;7351010;19;19941;-69
2022/12/11 00:32:04;;;;;;;;;;;;;;;3.75;88.05;100500.91;7350597;19;19922;-72
2022/12/11 00:34:31;;;;;;;;;;;;;;;3.78;88.24;100501.50;7350788;19;20399;-69
2022/12/11 00:36:58;;;;;;;;;;;;;;;3.79;88.00;100492.75;7350031;19;20121;-70
2022/12/11 00:39:25;;;;;;;;;;;;;;;3.78;87.74;100504.09;7350034;19;19926;-70
2022/12/11 00:41:51;;;;;;;;;;;;;;;3.76;87.69;100498.16;7350610;19;19926;-70
2022/12/11 00:44:18;;;;;;;;;;;;;;;3.77;87.48;100493.78;7347985;19;20267;-71
2022/12/11 00:46:45;;;;;;;;;;;;;;;3.79;87.37;100491.91;7349327;19;19950;-70
2022/12/11 00:49:11;;;;;;;;;;;;;;;3.78;87.37;100490.25;7349332;19;20362;-70
2022/12/11 00:51:38;;;;;;;;;;;;;;;3.80;87.94;100493.56;7346371;19;19958;-72
2022/12/11 00:54:05;;;;;;;;;;;;;;;3.82;87.97;100496.88;7350246;19;19922;-70
2022/12/11 00:56:32;;;;;;;;;;;;;;;3.81;87.71;100495.22;7349470;19;20370;-69
2022/12/11 00:58:58;;;;;;;;;;;;;;;3.78;87.59;100483.28;7350159;19;19914;-71
2022/12/11 01:01:25;;;;;;;;;;;;;;;3.75;87.37;100487.91;7349558;19;19923;-71
2022/12/11 01:04:00;;;;;;;;;;;;;;;3.74;87.40;100483.63;7347082;19;19923;-70
2022/12/11 01:06:28;;;;;;;;;;;;;;;3.70;87.69;100477.84;7346876;19;19955;-70
2022/12/11 01:11:41;;;;;;;;;;;;;;;3.57;87.45;100469.31;7348343;19;20269;-70
2022/12/11 01:14:08;;;;;;;;;;;;;;;3.58;88.12;100470.16;7350478;19;20574;-70
2022/12/11 01:16:35;;;;;;;;;;;;;;;3.57;88.23;100486.69;7348451;19;19923;-70
2022/12/11 01:19:02;;;;;;;;;;;;;;;3.54;87.85;100469.56;7348050;19;20863;-70
2022/12/11 01:21:29;;;;;;;;;;;;;;;3.56;88.31;100472.03;7346613;19;19926;-69
2022/12/11 01:23:58;;;;;;;;;;;;;;;3.58;88.58;100464.94;7348774;19;19929;-70
2022/12/11 01:26:24;;;;;;;;;;;;;;;3.55;88.11;100458.22;7345455;19;19918;-69
2022/12/11 01:28:51;;;;;;;;;;;;;;;3.57;88.32;100463.28;7348922;19;19926;-72
2022/12/11 01:31:18;;;;;;;;;;;;;;;3.58;88.50;100467.53;7350719;19;19971;-69
2022/12/11 01:33:45;;;;;;;;;;;;;;;3.58;88.61;100463.19;7357078;19;19919;-70
2022/12/11 01:36:19;;;;;;;;;;;;;;;3.58;88.69;100473.56;7349115;19;20019;-71
2022/12/11 01:38:47;;;;;;;;;;;;;;;3.57;88.64;100471.09;7355817;19;19923;-70
2022/12/11 01:41:14;;;;;;;;;;;;;;;3.55;88.31;100468.63;7352325;19;20430;-70
2022/12/11 01:44:03;;;;;;;;;;;;;;;3.53;88.28;100469.66;7353957;19;19934;-70
2022/12/11 01:46:31;;;;;;;;;;;;;;;3.55;88.13;100460.81;7352103;19;19927;-69
2022/12/11 01:48:58;;;;;;;;;;;;;;;3.53;88.12;100457.50;7355081;19;19955;-69
2022/12/11 01:51:26;;;;;;;;;;;;;;;3.48;88.05;100459.63;7351987;19;20002;-71
2022/12/11 01:53:59;;;;;;;;;;;;;;;3.45;88.33;100452.06;7355771;19;19949;-69
2022/12/11 01:56:28;;;;;;;;;;;;;;;3.44;88.23;100463.41;7357613;19;19926;-70
2022/12/11 01:58:59;;;;;;;;;;;;;;;3.41;88.18;100469.66;7358585;19;19963;-71
2022/12/11 02:01:45;;;;;;;;;;;;;;;3.43;88.58;100474.75;7355041;19;19931;-69
2022/12/11 02:04:13;;;;;;;;;;;;;;;3.42;88.86;100484.31;7354023;19;19919;-69
2022/12/11 02:06:45;;;;;;;;;;;;;;;3.37;88.71;100486.44;7352177;19;20063;-70
2022/12/11 02:09:17;;;;;;;;;;;;;;;3.35;88.60;100487.50;7355624;19;19930;-71
2022/12/11 02:11:44;;;;;;;;;;;;;;;3.37;88.60;100483.81;7352074;19;19949;-70
2022/12/11 02:14:20;;;;;;;;;;;;;;;3.37;89.16;100472.59;7355455;19;19949;-69
2022/12/11 02:16:50;;;;;;;;;;;;;;;3.42;90.46;100479.09;7353620;19;19919;-69
2022/12/11 02:19:29;;;;;;;;;;;;;;;3.39;90.37;100473.31;7356314;19;19923;-71
2022/12/11 02:21:57;;;;;;;;;;;;;;;3.36;90.07;100473.53;7347481;19;19919;-70
2022/12/11 02:24:43;;;;;;;;;;;;;;;3.32;89.75;100472.94;7357303;19;19927;-69
2022/12/11 02:27:29;;;;;;;;;;;;;;;3.29;89.44;100475.78;7355410;19;21271;-69
2022/12/11 02:30:15;;;;;;;;;;;;;;;3.26;89.07;100476.00;7351464;19;19919;-69
2022/12/11 02:32:56;;;;;;;;;;;;;;;3.26;89.17;100476.00;7355577;19;19935;-70
2022/12/11 02:35:26;;;;;;;;;;;;;;;3.26;89.64;100467.38;7357917;19;20249;-70
2022/12/11 02:37:56;;;;;;;;;;;;;;;3.22;89.76;100460.75;7349708;19;20801;-71
2022/12/11 02:40:25;;;;;;;;;;;;;;;3.23;90.72;100454.63;7355271;19;19915;-69
2022/12/11 02:42:53;;;;;;;;;;;;;;;3.20;90.88;100462.66;7347427;19;19941;-70
2022/12/11 02:45:21;;;;;;;;;;;;;;;3.17;90.12;100466.31;7354579;19;19915;-71
2022/12/11 02:47:48;;;;;;;;;;;;;;;3.14;90.07;100458.75;7353348;19;20506;-69
2022/12/11 02:50:17;;;;;;;;;;;;;;;3.10;90.04;100465.09;7356771;19;19923;-69
2022/12/11 02:52:45;;;;;;;;;;;;;;;3.06;90.27;100463.66;7350757;19;19946;-69
2022/12/11 02:55:13;;;;;;;;;;;;;;;3.03;89.65;100457.88;7354722;19;19915;-70
2022/12/11 02:57:46;;;;;;;;;;;;;;;3.03;89.71;100452.69;7351968;19;19973;-69
2022/12/11 03:00:13;;;;;;;;;;;;;;;3.07;90.68;100454.94;7353163;19;19919;-69
2022/12/11 03:02:40;;;;;;;;;;;;;;;3.12;91.75;100444.19;7349669;19;19970;-69
2022/12/11 03:05:08;;;;;;;;;;;;;;;3.14;91.74;100450.13;7354374;19;19921;-69
2022/12/11 03:07:37;;;;;;;;;;;;;;;3.15;91.73;100446.59;7351431;19;20256;-71
2022/12/11 03:10:05;;;;;;;;;;;;;;;3.12;91.24;100446.78;7352699;19;19923;-70
2022/12/11 03:12:35;;;;;;;;;;;;;;;3.08;90.31;100441.00;7351495;19;20188;-71
2022/12/11 03:15:04;;;;;;;;;;;;;;;3.08;89.55;100448.81;7354144;19;20682;-68
2022/12/11 03:17:43;;;;;;;;;;;;;;;3.04;89.29;100443.94;7350779;19;19977;-71
2022/12/11 03:20:29;;;;;;;;;;;;;;;2.99;89.28;100445.13;7348546;19;19923;-69
2022/12/11 03:23:16;;;;;;;;;;;;;;;2.99;89.07;100437.34;7349143;19;19927;-68
2022/12/11 03:25:52;;;;;;;;;;;;;;;2.99;89.05;100431.31;7352784;19;20363;-70
2022/12/11 03:28:23;;;;;;;;;;;;;;;2.97;89.04;100436.59;7352201;19;19919;-69
2022/12/11 03:30:52;;;;;;;;;;;;;;;2.96;89.25;100423.72;7351591;19;20434;-69
2022/12/11 03:33:22;;;;;;;;;;;;;;;2.98;90.28;100421.84;7354019;19;19939;-69
2022/12/11 03:35:57;;;;;;;;;;;;;;;2.96;90.75;100419.34;7350137;19;19927;-69
2022/12/11 03:38:30;;;;;;;;;;;;;;;2.96;90.14;100424.56;7351677;19;19925;-69
2022/12/11 03:40:59;;;;;;;;;;;;;;;2.92;89.60;100415.34;7351216;19;20662;-70
2022/12/11 03:43:28;;;;;;;;;;;;;;;2.92;89.74;100417.94;7351622;19;20041;-71
2022/12/11 03:45:55;;;;;;;;;;;;;;;2.93;89.78;100416.16;7352115;19;19933;-70
2022/12/11 03:48:24;;;;;;;;;;;;;;;2.92;89.11;100412.75;7352784;19;20342;-70
2022/12/11 03:50:51;;;;;;;;;;;;;;;2.89;88.61;100409.56;7349391;19;20017;-70
2022/12/11 03:53:19;;;;;;;;;;;;;;;2.89;88.77;100404.34;7351608;19;19918;-70
2022/12/11 03:55:47;;;;;;;;;;;;;;;2.91;88.47;100403.28;7352679;19;19915;-69
2022/12/11 03:58:13;;;;;;;;;;;;;;;2.91;88.17;100402.47;7351450;19;19918;-70
2022/12/11 04:00:40;;;;;;;;;;;;;;;2.88;87.22;100402.69;7350090;19;19949;-70
2022/12/11 04:03:13;;;;;;;;;;;;;;;2.86;86.91;100401.97;7347461;19;19931;-69
2022/12/11 04:05:41;;;;;;;;;;;;;;;2.81;86.61;100417.91;7349423;19;19937;-68
2022/12/11 04:08:08;;;;;;;;;;;;;;;2.79;86.82;100416.38;7349481;19;19955;-69
2022/12/11 04:10:35;;;;;;;;;;;;;;;2.76;86.89;100408.78;7352255;19;19951;-70
2022/12/11 04:13:01;;;;;;;;;;;;;;;2.76;87.02;100413.97;7351295;19;19918;-69
2022/12/11 04:15:28;;;;;;;;;;;;;;;2.76;87.03;100414.81;7352202;19;19944;-69
2022/12/11 04:26:15;;;;;;;;;;;;;;;2.70;87.26;100415.25;7350172;19;20546;-68
2022/12/11 04:28:43;;;;;;;;;;;;;;;2.67;87.36;100420.69;7351454;19;20296;-70
2022/12/11 04:31:11;;;;;;;;;;;;;;;2.65;87.30;100413.94;7349290;19;19911;-68
2022/12/11 04:33:38;;;;;;;;;;;;;;;2.62;87.47;100404.63;7349548;19;19927;-70
2022/12/11 04:36:05;;;;;;;;;;;;;;;2.61;87.30;100409.91;7347930;19;20372;-69
2022/12/11 04:38:32;;;;;;;;;;;;;;;2.60;87.40;100406.50;7350116;19;19949;-69
2022/12/11 04:41:09;;;;;;;;;;;;;;;2.57;87.20;100407.56;7348152;19;19961;-69
2022/12/11 04:43:37;;;;;;;;;;;;;;;2.57;87.32;100409.31;7349728;19;19923;-69
2022/12/11 04:46:06;;;;;;;;;;;;;;;2.59;87.31;100399.66;7349653;19;19919;-70
2022/12/11 04:48:33;;;;;;;;;;;;;;;2.57;86.96;100398.94;7350244;19;20735;-69
2022/12/11 04:51:00;;;;;;;;;;;;;;;2.54;86.49;100393.94;7346357;19;19942;-70
2022/12/11 04:53:26;;;;;;;;;;;;;;;2.52;86.31;100395.84;7352076;19;20271;-70
2022/12/11 04:55:53;;;;;;;;;;;;;;;2.49;86.08;100385.69;7349983;19;19922;-70
2022/12/11 04:58:20;;;;;;;;;;;;;;;2.44;85.94;100386.00;7350778;19;19927;-70
2022/12/11 05:00:47;;;;;;;;;;;;;;;2.43;85.90;100386.16;7350764;19;19922;-69
2022/12/11 05:03:14;;;;;;;;;;;;;;;2.38;86.05;100385.66;7348157;19;19953;-70
2022/12/11 05:05:46;;;;;;;;;;;;;;;2.34;86.49;100387.63;7349318;19;19923;-69
2022/12/11 05:08:13;;;;;;;;;;;;;;;2.34;87.11;100379.00;7357891;19;19911;-70
2022/12/11 05:10:39;;;;;;;;;;;;;;;2.34;87.71;100379.00;7356659;19;19923;-70
2022/12/11 05:13:13;;;;;;;;;;;;;;;2.31;87.85;100371.47;7356608;19;20315;-68
2022/12/11 05:15:40;;;;;;;;;;;;;;;2.31;87.69;100368.88;7356611;19;19922;-70
2022/12/11 05:18:07;;;;;;;;;;;;;;;2.33;87.70;100374.78;7357036;19;20333;-71
2022/12/11 05:20:34;;;;;;;;;;;;;;;2.32;87.57;100371.34;7355665;19;19953;-70
2022/12/11 05:23:01;;;;;;;;;;;;;;;2.35;87.43;100383.25;7354999;19;19923;-68
2022/12/11 05:25:27;;;;;;;;;;;;;;;2.37;87.01;100371.84;7353803;19;19958;-69
2022/12/11 05:27:54;;;;;;;;;;;;;;;2.36;85.52;100375.38;7355072;19;19919;-70
2022/12/11 05:30:20;;;;;;;;;;;;;;;2.30;84.93;100367.19;7355932;19;19923;-70
2022/12/11 05:32:47;;;;;;;;;;;;;;;2.20;85.27;100374.00;7355437;19;19923;-70
2022/12/11 05:35:14;;;;;;;;;;;;;;;2.11;85.76;100373.72;7356346;19;19930;-70
2022/12/11 05:37:40;;;;;;;;;;;;;;;2.04;86.16;100369.91;7353909;19;19918;-70
2022/12/11 05:40:07;;;;;;;;;;;;;;;2.02;86.75;100379.59;7356273;19;20622;-70
2022/12/11 05:42:34;;;;;;;;;;;;;;;1.99;86.87;100372.00;7353761;19;20329;-70
2022/12/11 05:45:01;;;;;;;;;;;;;;;2.00;87.49;100372.84;7354070;19;19949;-71
2022/12/11 05:47:27;;;;;;;;;;;;;;;2.02;87.87;100379.59;7355503;19;19937;-70
2022/12/11 05:49:54;;;;;;;;;;;;;;;2.04;87.51;100371.69;7356512;19;19951;-69
2022/12/11 05:52:21;;;;;;;;;;;;;;;2.02;87.89;100374.41;7351634;19;19935;-69
2022/12/11 05:54:49;;;;;;;;;;;;;;;2.01;87.69;100375.34;7354263;19;19955;-69
2022/12/11 05:57:15;;;;;;;;;;;;;;;1.98;87.98;100377.31;7354266;19;19960;-70
2022/12/11 05:59:44;;;;;;;;;;;;;;;1.94;88.52;100384.47;7357053;19;19930;-70
2022/12/11 06:02:10;;;;;;;;;;;;;;;1.91;88.86;100376.09;7351352;19;20010;-69
2022/12/11 06:04:37;;;;;;;;;;;;;;;1.88;89.05;100374.53;7354677;19;20014;-70
2022/12/11 06:07:04;;;;;;;;;;;;;;;1.87;89.68;100372.06;7350829;19;19922;-70
2022/12/11 06:09:30;;;;;;;;;;;;;;;1.86;89.75;100363.47;7355744;19;20292;-69
2022/12/11 06:11:57;;;;;;;;;;;;;;;1.84;89.75;100367.06;7355729;19;20512;-69
2022/12/11 06:14:24;;;;;;;;;;;;;;;1.83;89.76;100371.44;7355453;19;19961;-68
2022/12/11 06:16:50;;;;;;;;;;;;;;;1.82;90.32;100364.63;7354696;19;19918;-70
2022/12/11 06:19:18;;;;;;;;;;;;;;;1.79;89.87;100364.81;7356114;19;20401;-69
2022/12/11 06:21:45;;;;;;;;;;;;;;;1.77;89.22;100365.88;7349473;19;20437;-69
2022/12/11 06:24:12;;;;;;;;;;;;;;;1.75;88.90;100358.19;7352448;19;20285;-69
2022/12/11 06:26:39;;;;;;;;;;;;;;;1.77;89.20;100358.09;7352817;19;19931;-70
2022/12/11 06:29:05;;;;;;;;;;;;;;;1.76;88.74;100362.44;7353801;19;19919;-70
2022/12/11 06:31:38;;;;;;;;;;;;;;;1.75;88.64;100352.19;7352537;19;19949;-68
2022/12/11 06:34:05;;;;;;;;;;;;;;;1.73;88.62;100364.44;7354151;19;20305;-70
2022/12/11 06:36:31;;;;;;;;;;;;;;;1.71;89.11;100357.59;7350437;19;21204;-69
2022/12/11 06:38:58;;;;;;;;;;;;;;;1.68;89.60;100354.38;7353466;19;19915;-70
2022/12/11 06:41:25;;;;;;;;;;;;;;;1.65;90.42;100357.19;7351245;19;19930;-70
2022/12/11 06:43:51;;;;;;;;;;;;;;;1.60;90.35;100349.75;7353716;19;19947;-69
2022/12/11 06:46:18;;;;;;;;;;;;;;;1.54;90.20;100364.88;7353320;19;19929;-70
2022/12/11 06:48:46;;;;;;;;;;;;;;;1.52;90.55;100370.19;7353818;19;19926;-68
2022/12/11 06:51:14;;;;;;;;;;;;;;;1.55;89.87;100358.78;7349914;19;20445;-69
2022/12/11 06:53:41;;;;;;;;;;;;;;;1.49;89.78;100369.56;7356067;19;19999;-69
2022/12/11 06:56:11;;;;;;;;;;;;;;;1.45;90.20;100365.53;7354567;19;19934;-71
2022/12/11 06:58:39;;;;;;;;;;;;;;;1.36;90.65;100367.00;7355147;19;20079;-70
2022/12/11 07:01:19;;;;;;;;;;;;;;;1.25;90.88;100366.91;7353455;19;20364;-70
2022/12/11 07:03:46;;;;;;;;;;;;;;;1.20;91.56;100369.81;7350215;19;21617;-70
2022/12/11 07:06:13;;;;;;;;;;;;;;;1.20;92.13;100372.41;7351390;19;19949;-69
2022/12/11 07:08:40;;;;;;;;;;;;;;;1.19;93.16;100370.75;7352271;19;19915;-69
2022/12/11 07:11:08;;;;;;;;;;;;;;;1.23;93.52;100376.53;7350285;19;19933;-70
2022/12/11 07:13:35;;;;;;;;;;;;;;;1.28;94.15;100371.88;7351285;19;19926;-69
2022/12/11 07:16:03;;;;;;;;;;;;;;;1.32;94.22;100370.75;7350729;19;19926;-70
2022/12/11 07:18:31;;;;;;;;;;;;;;;1.37;94.35;100367.84;7352202;19;19919;-69
2022/12/11 07:20:59;;;;;;;;;;;;;;;1.38;94.66;100364.28;7348211;19;19918;-69
2022/12/11 07:23:27;;;;;;;;;;;;;;;1.36;94.26;100356.63;7351174;19;20224;-70
2022/12/11 07:25:54;;;;;;;;;;;;;;;1.36;94.38;100354.06;7351796;19;19918;-70
2022/12/11 07:28:21;;;;;;;;;;;;;;;1.40;94.10;100354.66;7349914;19;20501;-70
2022/12/11 07:30:48;;;;;;;;;;;;;;;1.45;94.73;100360.34;7350844;19;20274;-69
2022/12/11 07:33:15;;;;;;;;;;;;;;;1.49;94.59;100356.59;7351246;19;19926;-69
2022/12/11 07:35:42;;;;;;;;;;;;;;;1.51;94.53;100358.16;7348339;19;20438;-69
2022/12/11 07:38:09;;;;;;;;;;;;;;;1.56;94.67;100365.63;7349720;19;20038;-70
2022/12/11 07:40:36;;;;;;;;;;;;;;;1.62;95.12;100365.19;7351910;19;19950;-68
2022/12/11 07:43:02;;;;;;;;;;;;;;;1.65;94.97;100370.16;7353050;19;19981;-69
2022/12/11 07:45:29;;;;;;;;;;;;;;;1.70;95.25;100362.88;7350521;19;19922;-69
2022/12/11 07:47:56;;;;;;;;;;;;;;;1.73;94.88;100365.25;7352544;19;20478;-69
2022/12/11 07:50:22;;;;;;;;;;;;;;;1.76;94.63;100369.41;7354959;19;20308;-69
2022/12/11 07:52:49;;;;;;;;;;;;;;;1.71;94.02;100362.78;7350336;19;19945;-70
2022/12/11 07:55:16;;;;;;;;;;;;;;;1.70;94.17;100365.47;7350675;19;19927;-70
2022/12/11 07:57:42;;;;;;;;;;;;;;;1.71;93.96;100365.38;7351274;19;19941;-70
2022/12/11 08:00:10;;;;;;;;;;;;;;;1.75;94.06;100365.97;7350806;19;20340;-68
2022/12/11 08:02:37;;;;;;;;;;;;;;;1.75;94.02;100359.97;7348364;19;19922;-69
2022/12/11 08:05:04;;;;;;;;;;;;;;;1.71;93.61;100356.75;7365868;19;20273;-70
2022/12/11 08:07:33;;;;;;;;;;;;;;;1.71;93.69;100362.78;7381412;19;19953;-69
2022/12/11 08:09:59;;;;;;;;;;;;;;;1.70;93.34;100370.66;7366704;19;19922;-69
2022/12/11 08:12:26;;;;;;;;;;;;;;;1.69;92.60;100363.81;7348276;19;20223;-69
2022/12/11 08:14:53;;;;;;;;;;;;;;;1.67;92.86;100358.75;7351118;19;20457;-69
2022/12/11 08:17:20;;;;;;;;;;;;;;;1.71;92.69;100361.94;7350117;19;19923;-70
2022/12/11 08:19:54;;;;;;;;;;;;;;;1.71;92.79;100365.38;7352073;19;21201;-70
2022/12/11 08:22:21;;;;;;;;;;;;;;;1.75;92.63;100367.75;7344439;19;20378;-71
2022/12/11 08:24:47;;;;;;;;;;;;;;;1.78;92.92;100370.13;7349850;19;20280;-69
2022/12/11 08:27:14;;;;;;;;;;;;;;;1.77;92.83;100368.47;7349408;19;19923;-70
2022/12/11 08:29:42;;;;;;;;;;;;;;;1.77;92.83;100376.25;7348205;19;19922;-70
2022/12/11 08:32:10;;;;;;;;;;;;;;;1.82;92.69;100371.56;7348787;19;19915;-70
2022/12/11 08:34:38;;;;;;;;;;;;;;;1.80;92.23;100373.44;7351255;19;20498;-69
2022/12/11 08:37:04;;;;;;;;;;;;;;;1.82;92.36;100368.97;7347957;19;19914;-71
2022/12/11 08:39:31;;;;;;;;;;;;;;;1.82;92.52;100364.63;7351397;19;20604;-70
2022/12/11 08:41:58;;;;;;;;;;;;;;;1.83;92.27;100358.47;7357563;19;19934;-69
2022/12/11 08:44:26;;;;;;;;;;;;;;;1.85;91.86;100356.59;7356535;19;19923;-69
2022/12/11 08:46:52;;;;;;;;;;;;;;;1.82;91.99;100356.84;7357213;19;21622;-69
2022/12/11 08:49:19;;;;;;;;;;;;;;;1.82;91.75;100359.44;7358433;19;19918;-70
2022/12/11 08:51:46;;;;;;;;;;;;;;;1.81;91.89;100356.94;7355051;19;20687;-70
2022/12/11 08:54:12;;;;;;;;;;;;;;;1.81;91.76;100352.59;7358979;19;20221;-70
2022/12/11 08:56:39;;;;;;;;;;;;;;;1.69;91.89;100371.59;7357167;19;20501;-70
2022/12/11 08:59:06;;;;;;;;;;;;;;;1.68;92.50;100372.50;7357786;19;19922;-70
2022/12/11 09:01:33;;;;;;;;;;;;;;;1.70;93.08;100378.44;7356235;19;20113;-68
2022/12/11 09:04:00;;;;;;;;;;;;;;;1.76;93.52;100378.00;7354660;19;20022;-70
2022/12/11 09:06:28;;;;;;;;;;;;;;;1.74;92.92;100377.28;7354899;19;19923;-69
2022/12/11 09:08:55;;;;;;;;;;;;;;;1.80;93.09;100373.44;7358684;19;20730;-70
2022/12/11 09:11:31;;;;;;;;;;;;;;;1.82;93.11;100371.56;7353459;19;19919;-70
2022/12/11 09:13:59;;;;;;;;;;;;;;;1.88;93.18;100378.91;7357917;19;19927;-69
2022/12/11 09:16:33;;;;;;;;;;;;;;;1.91;93.44;100374.34;7355981;19;19939;-68
2022/12/11 09:18:59;;;;;;;;;;;;;;;1.97;93.40;100370.47;7357071;19;20413;-69
2022/12/11 09:21:27;;;;;;;;;;;;;;;1.96;93.12;100361.88;7354801;19;19926;-70
2022/12/11 09:23:55;;;;;;;;;;;;;;;1.98;92.83;100364.34;7356492;19;20353;-70
2022/12/11 09:26:23;;;;;;;;;;;;;;;2.00;93.08;100360.69;7353823;19;19923;-70
2022/12/11 09:28:52;;;;;;;;;;;;;;;2.04;93.37;100363.91;7355093;19;19923;-69
2022/12/11 09:31:23;;;;;;;;;;;;;;;2.07;93.33;100374.06;7351846;19;19927;-70
2022/12/11 09:33:50;;;;;;;;;;;;;;;2.07;93.37;100372.31;7356496;19;19933;-69
2022/12/11 09:36:17;;;;;;;;;;;;;;;2.06;92.97;100382.78;7349441;19;20718;-70
2022/12/11 09:38:44;;;;;;;;;;;;;;;2.07;92.92;100376.66;7354266;19;20054;-70
2022/12/11 09:41:20;;;;;;;;;;;;;;;2.08;92.52;100380.91;7353707;19;19927;-70
2022/12/11 09:43:51;;;;;;;;;;;;;;;2.11;92.68;100378.94;7352011;19;21565;-69
2022/12/11 09:46:18;;;;;;;;;;;;;;;2.09;92.48;100375.59;7354426;19;20181;-70
2022/12/11 09:48:50;;;;;;;;;;;;;;;2.09;92.24;100373.00;7348412;19;20780;-71
2022/12/11 09:51:19;;;;;;;;;;;;;;;2.11;92.29;100371.13;7348625;19;19926;-70
2022/12/11 09:53:48;;;;;;;;;;;;;;;2.12;92.08;100375.41;7348538;19;20395;-70
2022/12/11 09:56:27;;;;;;;;;;;;;;;2.13;91.87;100374.44;7353450;19;19949;-70
2022/12/11 09:59:29;;;;;;;;;;;;;;;2.15;91.89;100374.34;7357434;19;19927;-71
2022/12/11 10:02:18;;;;;;;;;;;;;;;2.14;91.61;100378.69;7349956;19;19926;-69
2022/12/11 10:05:16;;;;;;;;;;;;;;;2.17;91.39;100376.81;7354759;19;19998;-69
2022/12/11 10:08:07;;;;;;;;;;;;;;;2.19;91.39;100374.94;7352893;19;19926;-69
2022/12/11 10:10:42;;;;;;;;;;;;;;;2.15;91.14;100372.56;7352531;19;20261;-70
2022/12/11 10:13:35;;;;;;;;;;;;;;;2.09;90.74;100365.22;7355511;19;19996;-69
2022/12/11 10:16:08;;;;;;;;;;;;;;;2.09;90.26;100364.38;7346421;19;19995;-69
2022/12/11 10:18:35;;;;;;;;;;;;;;;2.13;88.69;100369.25;7355665;19;19931;-71
2022/12/11 10:21:02;;;;;;;;;;;;;;;2.06;88.67;100373.22;7293792;19;19937;-69
2022/12/11 10:23:40;;;;;;;;;;;;;;;2.00;89.01;100367.66;7346603;19;20034;-70
2022/12/11 10:26:11;;;;;;;;;;;;;;;1.97;90.06;100373.91;7349608;19;19926;-70
2022/12/11 10:28:38;;;;;;;;;;;;;;;1.96;90.54;100368.81;7353308;19;19930;-70
2022/12/11 10:31:23;;;;;;;;;;;;;;;1.98;91.13;100359.16;7361404;19;19935;-71
2022/12/11 10:33:55;;;;;;;;;;;;;;;2.01;91.34;100353.75;7355395;19;19918;-70
2022/12/11 10:36:31;;;;;;;;;;;;;;;2.12;91.45;100359.84;7351142;19;20529;-69
2022/12/11 10:38:58;;;;;;;;;;;;;;;2.21;90.16;100339.34;7355853;19;19926;-70
2022/12/11 10:41:38;;;;;;;;;;;;;;;2.24;89.06;100337.34;7356429;19;20526;-70
2022/12/11 10:44:19;;;;;;;;;;;;;;;2.24;88.60;100341.69;7344064;19;19919;-71
2022/12/11 10:46:47;;;;;;;;;;;;;;;2.22;88.96;100349.59;7338722;19;20230;-71
2022/12/11 10:49:22;;;;;;;;;;;;;;;2.28;88.94;100346.56;7353150;19;20588;-70
2022/12/11 10:51:49;;;;;;;;;;;;;;;2.32;88.90;100348.00;7353244;19;19919;-69
2022/12/11 10:54:26;;;;;;;;;;;;;;;2.31;88.07;100348.09;7355221;19;20244;-70
2022/12/11 10:56:53;;;;;;;;;;;;;;;2.27;88.65;100344.09;7350031;19;19922;-71
2022/12/11 10:59:24;;;;;;;;;;;;;;;2.28;89.33;100341.38;7354166;19;19919;-69
2022/12/11 11:01:52;;;;;;;;;;;;;;;2.28;89.35;100343.16;7355002;19;19933;-71
2022/12/11 11:04:28;;;;;;;;;;;;;;;2.31;89.38;100342.91;7350689;19;19930;-71
2022/12/11 11:07:03;;;;;;;;;;;;;;;2.38;89.47;100346.72;7352291;19;19943;-70
2022/12/11 11:09:32;;;;;;;;;;;;;;;2.39;89.20;100343.16;7351441;19;20109;-69
2022/12/11 11:11:59;;;;;;;;;;;;;;;2.45;89.16;100337.53;7350739;19;19929;-70
2022/12/11 11:14:33;;;;;;;;;;;;;;;2.44;89.53;100339.28;7353288;19;20046;-70
2022/12/11 11:17:00;;;;;;;;;;;;;;;2.43;89.01;100332.47;7351784;19;19939;-70
2022/12/11 11:19:33;;;;;;;;;;;;;;;2.43;88.94;100329.88;7352109;19;20670;-71
2022/12/11 11:22:01;;;;;;;;;;;;;;;2.41;88.93;100325.72;7350617;19;19925;-69
2022/12/11 11:24:39;;;;;;;;;;;;;;;2.42;89.22;100327.38;7354379;19;19919;-70
2022/12/11 11:27:25;;;;;;;;;;;;;;;2.44;88.80;100320.28;7302558;19;19923;-71
2022/12/11 11:29:57;;;;;;;;;;;;;;;2.47;88.61;100322.69;7349153;19;20673;-70
2022/12/11 11:32:44;;;;;;;;;;;;;;;2.50;88.95;100318.09;7348774;19;20557;-69
2022/12/11 11:35:11;;;;;;;;;;;;;;;2.54;88.94;100321.25;7353148;19;19922;-70
2022/12/11 11:37:44;;;;;;;;;;;;;;;2.59;89.44;100316.59;7347933;19;19922;-70
2022/12/11 11:40:15;;;;;;;;;;;;;;;2.59;89.26;100309.59;7349762;19;19919;-70
2022/12/11 11:43:00;;;;;;;;;;;;;;;2.67;88.67;100316.00;7346370;19;19919;-69
2022/12/11 11:45:35;;;;;;;;;;;;;;;2.62;88.52;100305.97;7346785;19;19915;-69
2022/12/11 11:48:12;;;;;;;;;;;;;;;2.59;89.40;100301.81;7352739;19;19919;-69
2022/12/11 11:50:43;;;;;;;;;;;;;;;2.60;89.86;100300.03;7349497;19;19945;-68
2022/12/11 11:53:18;;;;;;;;;;;;;;;2.62;90.60;100305.97;7354099;19;20326;-69
2022/12/11 11:56:05;;;;;;;;;;;;;;;2.64;91.10;100292.88;7351812;19;21017;-70
2022/12/11 11:58:54;;;;;;;;;;;;;;;2.66;90.45;100294.41;7351876;19;20364;-70
2022/12/11 12:01:21;;;;;;;;;;;;;;;2.66;90.22;100299.59;7347422;19;19927;-69
2022/12/11 12:03:48;;;;;;;;;;;;;;;2.74;90.10;100296.44;7352203;19;19950;-70
2022/12/11 12:06:35;;;;;;;;;;;;;;;2.77;90.21;100291.81;7347239;19;19922;-70
2022/12/11 12:09:05;;;;;;;;;;;;;;;2.82;90.29;100291.47;7348002;19;19959;-69
2022/12/11 12:11:31;;;;;;;;;;;;;;;2.87;89.80;100297.13;7351376;19;19922;-70
2022/12/11 12:14:01;;;;;;;;;;;;;;;2.89;90.32;100290.91;7347662;19;19915;-69
2022/12/11 12:16:31;;;;;;;;;;;;;;;2.86;90.38;100293.72;7349844;19;19918;-70
2022/12/11 12:19:38;;;;;;;;;;;;;;;2.87;90.90;100295.38;7350791;19;19918;-69
2022/12/11 12:22:19;;;;;;;;;;;;;;;2.93;91.56;100304.47;7347289;19;20203;-68
2022/12/11 12:24:58;;;;;;;;;;;;;;;2.99;92.14;100293.63;7350976;19;19993;-69
2022/12/11 12:27:50;;;;;;;;;;;;;;;2.98;92.08;100281.56;7351019;19;20210;-70
2022/12/11 12:30:19;;;;;;;;;;;;;;;3.07;92.65;100275.66;7349893;19;19922;-68
2022/12/11 12:33:12;;;;;;;;;;;;;;;3.05;91.74;100287.13;7349184;19;19929;-71
2022/12/11 12:36:01;;;;;;;;;;;;;;;3.07;91.10;100287.81;7347796;19;19926;-69
2022/12/11 12:38:38;;;;;;;;;;;;;;;3.10;90.80;100285.78;7349443;19;20340;-71
2022/12/11 12:41:05;;;;;;;;;;;;;;;3.12;90.32;100296.06;7351026;19;20383;-70
2022/12/11 12:43:51;;;;;;;;;;;;;;;3.06;90.18;100291.34;7351542;19;19966;-69
2022/12/11 12:46:36;;;;;;;;;;;;;;;3.08;90.35;100284.28;7346929;19;19919;-69
2022/12/11 12:49:04;;;;;;;;;;;;;;;3.09;90.50;100276.38;7350412;19;20221;-68
2022/12/11 12:51:31;;;;;;;;;;;;;;;3.12;90.82;100265.72;7344861;19;19923;-70
2022/12/11 12:54:02;;;;;;;;;;;;;;;3.17;90.57;100266.19;7352651;19;19949;-70
2022/12/11 12:56:39;;;;;;;;;;;;;;;3.24;90.45;100263.94;7352497;19;19914;-71
2022/12/11 12:59:17;;;;;;;;;;;;;;;3.25;89.99;100265.59;7352657;19;20698;-71
2022/12/11 13:01:51;;;;;;;;;;;;;;;3.26;90.90;100270.66;7346914;19;19923;-70
2022/12/11 13:04:34;;;;;;;;;;;;;;;3.26;91.00;100267.22;7346888;19;19943;-71
2022/12/11 13:07:26;;;;;;;;;;;;;;;3.28;91.71;100270.56;7346931;19;19950;-70
2022/12/11 13:10:04;;;;;;;;;;;;;;;3.29;91.96;100264.41;7349046;19;19923;-72
2022/12/11 13:12:41;;;;;;;;;;;;;;;3.29;92.28;100262.66;7349722;19;19957;-70
2022/12/11 13:15:24;;;;;;;;;;;;;;;3.29;92.01;100267.00;7349159;19;19953;-70